Saturday, November 18, 2017, 1:11 AM EST
Back to Local

KAQW, N Adams Harriman-and-west

Location: North Adams, MA, United States Lat: 42.7
Local Time: 1:11 AM EST ( 6:11 GMT) Lon: -73.167
Time Zone: US/Eastern Elev: 652 ft

Show me the last for .
Show Decoded

2017-11-18 00:52 METAR KAQW 180552Z AUTO 27004KT 10SM CLR M06/M08 A3001 RMK AO2 SLP173 T10561083
                 11011 21056 58005 =
2017-11-17 23:52 METAR KAQW 180452Z AUTO 30003KT 10SM CLR M04/M08 A3003 RMK AO2 SLP179 T10441078
                 400441044 =
2017-11-17 22:52 METAR KAQW 180352Z AUTO 28007KT 10SM CLR M04/M08 A3005 RMK AO2 SLP183 T10391078
                 =
2017-11-17 21:52 METAR KAQW 180252Z AUTO 27005KT 10SM CLR M03/M08 A3003 RMK AO2 SLP178 T10281083
                 58014 =
2017-11-17 20:52 METAR KAQW 180152Z AUTO 28006KT 10SM CLR M03/M08 A3005 RMK AO2 SLP186 T10281078
                 =
2017-11-17 19:52 METAR KAQW 180052Z AUTO 28008KT 10SM CLR M01/M08 A3007 RMK AO2 SLP189 T10111078
                 =
2017-11-17 18:52 METAR KAQW 172352Z AUTO 27008KT 10SM CLR M01/M08 A3007 RMK AO2 SLP191 T10111078
                 10044 21011 51016 =
2017-11-17 17:52 METAR KAQW 172252Z AUTO 29007KT 10SM CLR 00/M07 A3006 RMK AO2 SLP186 T00001072 =
2017-11-17 16:52 METAR KAQW 172152Z AUTO 27010KT 10SM CLR 01/M08 A3004 RMK AO2 SLP181 T00061078 =
2017-11-17 15:52 METAR KAQW 172052Z AUTO 27014G20KT 10SM CLR 02/M07 A3003 RMK AO2 SLP174
                 T00221072 53017 =
2017-11-17 14:52 METAR KAQW 171952Z AUTO 27017G21KT 10SM CLR 03/M07 A3000 RMK AO2 SLP166
                 T00331067 =
2017-11-17 13:52 METAR KAQW 171852Z AUTO 28012G20KT 10SM CLR 04/M07 A2998 RMK AO2 SLP159
                 T00391072 =
2017-11-17 12:52 METAR KAQW 171752Z AUTO 29009G23KT 10SM FEW040 03/M07 A2997 RMK AO2 SLP156
                 T00331067 10033 20006 58014 =
2017-11-17 11:52 METAR KAQW 171652Z AUTO 28015G22KT 10SM BKN036 02/M06 A2998 RMK AO2 SLP159
                 T00221056 =
2017-11-17 10:52 METAR KAQW 171552Z AUTO 29010G17KT 10SM OVC033 02/M06 A3001 RMK AO2 SLP167
                 T00171056 =
2017-11-17 10:06 METAR KAQW 171506Z AUTO 28014G25KT 10SM OVC030 01/M06 A3002 RMK AO2 T00061061 =
2017-11-17 09:52 METAR KAQW 171452Z AUTO 29012G22KT 10SM OVC029 01/M06 A3001 RMK AO2 PK WND
                 27029/1354 SLP170 T00061056 51012 =
2017-11-17 09:48 METAR KAQW 171448Z AUTO 29011G21KT 10SM OVC029 01/M06 A3001 RMK AO2 PK WND
                 27029/1354 =
2017-11-17 08:52 METAR KAQW 171352Z AUTO 27022G30KT 10SM OVC032 01/M05 A2999 RMK AO2 PK WND
                 27030/1348 SLP163 T00061050 =
2017-11-17 07:52 METAR KAQW 171252Z AUTO 27014G24KT 10SM OVC030 01/M05 A2998 RMK AO2 SLP158
                 T00061050 =
2017-11-17 06:52 METAR KAQW 171152Z AUTO 28014G25KT 260V340 10SM OVC031 01/M05 A2995 RMK AO2 PK
                 WND 27031/1122 SLP146 70017 T00061050 10039 20006 53029 =
2017-11-17 05:52 METAR KAQW 171052Z AUTO 28017G27KT 10SM OVC032 01/M04 A2991 RMK AO2 PK WND
                 27027/1052 SLP135 T00111044 =
2017-11-17 04:52 METAR KAQW 170952Z AUTO 28011G23KT 10SM BKN032 OVC039 02/M04 A2988 RMK AO2 PK
                 WND 28028/0926 SLP123 T00171039 =
2017-11-17 04:24 METAR KAQW 170924Z AUTO 27014G24KT 10SM OVC032 02/M04 A2987 RMK AO2 T00171039 =
2017-11-17 04:12 METAR KAQW 170912Z AUTO 27013G22KT 10SM BKN029 OVC035 02/M03 A2987 RMK AO2
                 T00171033 =
2017-11-17 03:52 METAR KAQW 170852Z AUTO 27017G22KT 10SM BKN030 OVC035 02/M03 A2986 RMK AO2
                 SLP116 T00221033 51018 =
2017-11-17 03:09 METAR KAQW 170809Z AUTO 27013G20KT 10SM OVC032 02/M03 A2985 RMK AO2 T00221028 =
2017-11-17 02:52 METAR KAQW 170752Z AUTO 27012G18KT 10SM BKN029 OVC040 03/M03 A2984 RMK AO2
                 SLP111 T00281028 =
2017-11-17 02:34 METAR KAQW 170734Z AUTO 28018G25KT 10SM SCT029 OVC040 03/M03 A2984 RMK AO2
                 T00281028 =
2017-11-17 01:52 METAR KAQW 170652Z AUTO 28010G19KT 10SM BKN029 OVC040 03/M02 A2983 RMK AO2
                 SLP104 T00331022 =
2017-11-17 01:37 METAR KAQW 170637Z AUTO 27013G20KT 10SM BKN028 OVC037 03/M02 A2982 RMK AO2
                 T00331017 =

Support USWX by starting your Amazon purchase here.